Time;durP1;ratioP1;P1;durP2;ratioP2;P2;SDS_P1;SDS_P2;PMS_P1;PMS_P2;Temp;Humidity;BMP_temperature;BMP_pressure;BME280_temperature;BME280_humidity;BME280_pressure;Samples;Min_cycle;Max_cycle;Signal;HPM_P1;HPM_P2
2021/12/26 00:01:24;;;;;;;7.93;4.27;;;;;;;;;;6187137;23;20156;-91
2021/12/26 00:04:32;;;;;;;9.50;5.10;;;;;;;;;;6188620;23;20152;-91
2021/12/26 00:07:38;;;;;;;11.47;4.50;;;;;;;;;;6188729;23;20207;-90
2021/12/26 00:10:43;;;;;;;7.93;4.47;;;;;;;;;;6187951;23;20184;-90
2021/12/26 00:13:50;;;;;;;7.43;3.90;;;;;;;;;;6188092;23;20172;-90
2021/12/26 00:16:55;;;;;;;7.97;4.17;;;;;;;;;;6187883;23;20199;-90
2021/12/26 00:20:02;;;;;;;8.17;4.37;;;;;;;;;;6188793;23;20168;-90
2021/12/26 00:23:08;;;;;;;8.37;4.30;;;;;;;;;;6187830;23;20197;-92
2021/12/26 00:26:14;;;;;;;8.23;4.40;;;;;;;;;;6185000;23;20180;-90
2021/12/26 00:29:19;;;;;;;9.67;4.10;;;;;;;;;;6187575;23;20244;-88
2021/12/26 00:32:26;;;;;;;7.77;4.30;;;;;;;;;;6188569;23;20221;-91
2021/12/26 00:35:32;;;;;;;9.97;4.63;;;;;;;;;;6186121;23;20188;-90
2021/12/26 00:38:41;;;;;;;16.63;7.80;;;;;;;;;;6187573;23;20171;-90
2021/12/26 00:41:47;;;;;;;16.77;8.97;;;;;;;;;;6183603;23;20168;-88
2021/12/26 00:44:52;;;;;;;19.37;10.10;;;;;;;;;;6185522;23;20155;-89
2021/12/26 00:47:58;;;;;;;17.10;9.37;;;;;;;;;;6183537;23;20219;-89
2021/12/26 00:51:04;;;;;;;18.87;9.57;;;;;;;;;;6183292;23;20611;-89
2021/12/26 00:54:10;;;;;;;21.00;10.03;;;;;;;;;;6184683;23;20208;-88
2021/12/26 00:57:15;;;;;;;18.60;9.87;;;;;;;;;;6185076;23;20172;-89
2021/12/26 01:00:23;;;;;;;18.87;9.80;;;;;;;;;;6185397;23;20240;-88
2021/12/26 01:03:28;;;;;;;19.17;9.37;;;;;;;;;;6174301;23;20225;-89
2021/12/26 01:07:07;;;;;;;19.57;9.63;;;;;;;;;;6172692;23;20216;-90
2021/12/26 01:10:16;;;;;;;23.23;10.47;;;;;;;;;;6174439;23;20157;-89
2021/12/26 01:13:27;;;;;;;22.93;10.27;;;;;;;;;;6173797;23;20247;-90
2021/12/26 01:16:41;;;;;;;19.63;10.27;;;;;;;;;;6174662;23;20177;-90
2021/12/26 01:19:49;;;;;;;20.03;10.20;;;;;;;;;;6173604;23;20233;-90
2021/12/26 01:22:55;;;;;;;23.10;10.53;;;;;;;;;;6172615;23;20197;-89
2021/12/26 01:26:02;;;;;;;22.67;11.50;;;;;;;;;;6169679;23;20172;-90
2021/12/26 01:29:10;;;;;;;25.27;10.83;;;;;;;;;;6170096;23;20171;-90
2021/12/26 01:32:20;;;;;;;25.37;10.83;;;;;;;;;;6173763;23;20179;-90
2021/12/26 01:35:41;;;;;;;21.00;10.50;;;;;;;;;;6170065;23;20168;-90
2021/12/26 01:39:09;;;;;;;24.93;10.73;;;;;;;;;;6174442;23;20241;-90
2021/12/26 01:42:35;;;;;;;24.70;10.73;;;;;;;;;;6172074;23;20157;-90
2021/12/26 01:45:57;;;;;;;24.70;11.30;;;;;;;;;;6169032;23;20169;-90
2021/12/26 01:49:03;;;;;;;21.60;10.67;;;;;;;;;;6170262;23;20208;-89
2021/12/26 01:52:10;;;;;;;20.57;10.60;;;;;;;;;;6170553;23;20181;-91
2021/12/26 01:55:24;;;;;;;22.53;11.23;;;;;;;;;;6168010;23;20183;-89
2021/12/26 01:58:31;;;;;;;26.20;11.27;;;;;;;;;;6169934;23;20169;-90
2021/12/26 02:01:43;;;;;;;24.97;11.47;;;;;;;;;;6174528;23;20191;-90
2021/12/26 02:04:48;;;;;;;30.53;13.07;;;;;;;;;;6182787;23;20151;-89
2021/12/26 02:07:53;;;;;;;27.83;12.17;;;;;;;;;;6182777;23;20199;-90
2021/12/26 02:11:02;;;;;;;28.07;13.03;;;;;;;;;;6184989;23;20264;-89
2021/12/26 02:14:09;;;;;;;25.17;11.97;;;;;;;;;;6187590;23;20271;-89
2021/12/26 02:17:35;;;;;;;25.50;11.33;;;;;;;;;;6202679;23;20258;-90
2021/12/26 02:20:57;;;;;;;24.87;11.70;;;;;;;;;;6183642;23;20147;-90
2021/12/26 02:24:14;;;;;;;25.57;12.63;;;;;;;;;;6183243;23;20168;-89
2021/12/26 02:27:32;;;;;;;27.87;12.10;;;;;;;;;;6182087;23;20343;-90
2021/12/26 02:30:37;;;;;;;27.27;12.50;;;;;;;;;;6181477;23;20159;-90
2021/12/26 02:33:42;;;;;;;28.07;13.00;;;;;;;;;;6182669;23;20196;-89
2021/12/26 02:36:50;;;;;;;27.57;12.23;;;;;;;;;;6183625;23;20270;-90
2021/12/26 02:39:56;;;;;;;28.40;12.80;;;;;;;;;;6183545;23;20248;-91
2021/12/26 02:43:01;;;;;;;28.43;12.53;;;;;;;;;;6183701;23;20229;-89
2021/12/26 02:46:07;;;;;;;28.50;12.60;;;;;;;;;;6184791;23;20167;-91
2021/12/26 02:49:14;;;;;;;28.27;11.73;;;;;;;;;;6182041;23;20199;-90
2021/12/26 02:52:23;;;;;;;22.67;11.13;;;;;;;;;;6155497;23;20263;-90
2021/12/26 02:55:29;;;;;;;25.97;12.40;;;;;;;;;;6182218;23;20553;-90
2021/12/26 02:58:34;;;;;;;28.87;12.50;;;;;;;;;;6182490;23;20171;-91
2021/12/26 03:01:39;;;;;;;26.43;12.10;;;;;;;;;;6183388;23;20184;-90
2021/12/26 03:04:45;;;;;;;26.00;11.53;;;;;;;;;;6182158;23;20160;-91
2021/12/26 03:07:51;;;;;;;25.97;11.20;;;;;;;;;;6184830;23;20190;-91
2021/12/26 03:10:57;;;;;;;28.60;12.97;;;;;;;;;;6183682;23;20159;-91
2021/12/26 03:14:02;;;;;;;36.00;14.17;;;;;;;;;;6185633;23;20172;-90
2021/12/26 03:17:08;;;;;;;37.80;14.83;;;;;;;;;;6184580;23;20236;-88
2021/12/26 03:20:15;;;;;;;30.77;13.57;;;;;;;;;;6185514;23;20171;-90
2021/12/26 03:23:23;;;;;;;33.87;14.07;;;;;;;;;;6185253;23;20678;-89
2021/12/26 03:26:28;;;;;;;41.27;16.00;;;;;;;;;;6187575;23;20618;-91
2021/12/26 03:29:35;;;;;;;32.23;13.30;;;;;;;;;;6186441;23;20180;-90
2021/12/26 03:32:43;;;;;;;38.83;14.40;;;;;;;;;;6186313;23;20259;-90
2021/12/26 03:35:49;;;;;;;32.77;13.93;;;;;;;;;;6185471;23;20296;-91
2021/12/26 03:38:56;;;;;;;33.33;13.60;;;;;;;;;;6183420;23;20175;-89
2021/12/26 03:42:10;;;;;;;32.83;13.77;;;;;;;;;;6185581;23;20163;-91
2021/12/26 03:45:16;;;;;;;34.90;13.87;;;;;;;;;;6185546;23;20167;-90
2021/12/26 03:48:22;;;;;;;39.67;14.80;;;;;;;;;;6186126;23;20214;-91
2021/12/26 03:51:28;;;;;;;33.33;13.33;;;;;;;;;;6186527;23;20184;-91
2021/12/26 03:54:35;;;;;;;36.23;15.13;;;;;;;;;;6185136;23;20168;-91
2021/12/26 03:57:41;;;;;;;32.93;14.23;;;;;;;;;;6184532;23;20180;-90
2021/12/26 04:00:48;;;;;;;30.43;14.20;;;;;;;;;;6186289;23;20164;-90
2021/12/26 04:03:57;;;;;;;35.83;15.33;;;;;;;;;;6156279;23;20260;-90
2021/12/26 04:07:02;;;;;;;33.43;14.37;;;;;;;;;;6154917;23;20188;-89
2021/12/26 04:10:09;;;;;;;31.37;13.83;;;;;;;;;;6154302;23;20172;-90
2021/12/26 04:13:14;;;;;;;36.37;14.17;;;;;;;;;;6154198;23;20172;-90
2021/12/26 04:16:19;;;;;;;33.10;14.37;;;;;;;;;;6155544;23;20229;-89
2021/12/26 04:19:25;;;;;;;41.17;15.70;;;;;;;;;;6153293;23;20176;-88
2021/12/26 04:22:30;;;;;;;29.07;13.63;;;;;;;;;;6153986;23;20187;-90
2021/12/26 04:25:37;;;;;;;42.47;15.60;;;;;;;;;;6153177;23;20171;-89
2021/12/26 04:28:43;;;;;;;36.93;14.57;;;;;;;;;;6152513;23;20200;-91
2021/12/26 04:31:49;;;;;;;36.10;14.43;;;;;;;;;;6156476;23;20205;-89
2021/12/26 04:34:55;;;;;;;36.30;14.30;;;;;;;;;;6152248;23;20214;-91
2021/12/26 04:38:00;;;;;;;36.33;14.00;;;;;;;;;;6152311;23;20172;-90
2021/12/26 04:41:06;;;;;;;33.83;14.20;;;;;;;;;;6152300;23;20169;-91
2021/12/26 04:44:29;;;;;;;33.83;14.00;;;;;;;;;;6153559;23;20300;-90
2021/12/26 04:48:10;;;;;;;33.10;13.97;;;;;;;;;;6057621;23;20195;-91
2021/12/26 04:51:15;;;;;;;32.57;14.03;;;;;;;;;;6156207;23;20152;-90
2021/12/26 04:54:22;;;;;;;32.60;12.77;;;;;;;;;;6156919;23;20168;-91
2021/12/26 04:57:29;;;;;;;28.33;12.07;;;;;;;;;;6156476;23;20149;-90
2021/12/26 05:01:00;;;;;;;34.27;13.47;;;;;;;;;;6156616;23;20168;-90
2021/12/26 05:04:05;;;;;;;29.87;12.97;;;;;;;;;;6157357;23;20156;-90
2021/12/26 05:07:11;;;;;;;33.40;13.73;;;;;;;;;;6157225;23;20176;-89
2021/12/26 05:10:19;;;;;;;35.07;14.40;;;;;;;;;;6156482;23;20177;-91
2021/12/26 05:13:26;;;;;;;35.83;14.70;;;;;;;;;;6154900;23;20152;-88
2021/12/26 05:16:31;;;;;;;36.87;13.57;;;;;;;;;;6156330;23;20160;-89
2021/12/26 05:19:38;;;;;;;37.47;13.97;;;;;;;;;;6154226;23;20197;-89
2021/12/26 05:22:44;;;;;;;31.50;12.73;;;;;;;;;;6155707;23;20172;-89
2021/12/26 05:25:50;;;;;;;31.83;12.73;;;;;;;;;;6157287;23;20184;-89
2021/12/26 05:28:57;;;;;;;34.43;13.63;;;;;;;;;;6156238;23;20201;-89
2021/12/26 05:32:06;;;;;;;34.60;13.73;;;;;;;;;;6157218;23;20165;-90
2021/12/26 05:35:12;;;;;;;35.90;14.27;;;;;;;;;;6158117;23;20213;-91
2021/12/26 05:38:18;;;;;;;32.60;13.07;;;;;;;;;;6156180;23;20492;-88
2021/12/26 05:41:26;;;;;;;33.90;13.87;;;;;;;;;;6154050;23;20216;-90
2021/12/26 05:44:50;;;;;;;31.57;13.37;;;;;;;;;;6153643;23;20168;-88
2021/12/26 05:47:55;;;;;;;34.77;13.87;;;;;;;;;;6154569;23;20152;-89
2021/12/26 05:51:01;;;;;;;34.07;14.53;;;;;;;;;;6153226;23;20188;-89
2021/12/26 05:54:25;;;;;;;34.20;13.53;;;;;;;;;;6172462;23;20216;-90
2021/12/26 05:57:34;;;;;;;33.50;14.43;;;;;;;;;;6154732;23;20169;-90
2021/12/26 06:00:43;;;;;;;31.83;12.63;;;;;;;;;;6151176;23;20225;-90
2021/12/26 06:03:47;;;;;;;30.30;12.73;;;;;;;;;;6153675;23;20153;-90
2021/12/26 06:06:53;;;;;;;28.03;12.70;;;;;;;;;;6154361;23;20245;-90
2021/12/26 06:10:02;;;;;;;28.73;12.73;;;;;;;;;;6154260;23;20200;-91
2021/12/26 06:13:08;;;;;;;32.30;13.43;;;;;;;;;;6155521;23;20189;-90
2021/12/26 06:16:15;;;;;;;29.30;13.07;;;;;;;;;;6152374;23;20168;-90
2021/12/26 06:19:21;;;;;;;37.17;14.30;;;;;;;;;;6153540;23;20188;-89
2021/12/26 06:22:53;;;;;;;34.30;13.47;;;;;;;;;;6174463;23;20188;-90
2021/12/26 06:26:18;;;;;;;33.67;13.27;;;;;;;;;;6173178;23;20243;-90
2021/12/26 06:29:24;;;;;;;28.30;11.77;;;;;;;;;;6155091;23;20200;-89
2021/12/26 06:32:49;;;;;;;29.17;12.43;;;;;;;;;;6174230;23;20242;-90
2021/12/26 06:36:20;;;;;;;28.13;12.90;;;;;;;;;;6172111;23;20490;-90
2021/12/26 06:39:45;;;;;;;29.20;12.33;;;;;;;;;;6173420;23;20288;-91
2021/12/26 06:43:11;;;;;;;28.83;11.83;;;;;;;;;;6172032;23;20173;-90
2021/12/26 06:46:36;;;;;;;29.67;12.57;;;;;;;;;;6173856;23;20197;-88
2021/12/26 06:49:53;;;;;;;31.80;12.87;;;;;;;;;;6156367;23;20203;-91
2021/12/26 06:52:59;;;;;;;28.93;12.60;;;;;;;;;;6155632;23;20173;-90
2021/12/26 06:56:04;;;;;;;34.23;13.50;;;;;;;;;;6154504;23;20169;-90
2021/12/26 06:59:09;;;;;;;29.33;12.37;;;;;;;;;;6153218;23;20214;-90
2021/12/26 07:02:14;;;;;;;29.77;12.20;;;;;;;;;;6166004;23;20175;-89
2021/12/26 07:05:39;;;;;;;30.83;12.53;;;;;;;;;;6185752;23;20195;-90
2021/12/26 07:08:50;;;;;;;28.37;12.27;;;;;;;;;;6184763;23;20195;-88
2021/12/26 07:11:56;;;;;;;28.20;12.37;;;;;;;;;;6186250;23;20171;-89
2021/12/26 07:15:28;;;;;;;31.50;12.97;;;;;;;;;;6201975;23;20627;-90
2021/12/26 07:18:38;;;;;;;31.33;12.83;;;;;;;;;;6189037;23;20167;-90
2021/12/26 07:21:44;;;;;;;28.63;12.20;;;;;;;;;;6187765;23;20163;-90
2021/12/26 07:24:53;;;;;;;29.87;12.30;;;;;;;;;;6190860;23;20168;-88
2021/12/26 07:28:00;;;;;;;30.70;12.30;;;;;;;;;;6190116;23;20156;-91
2021/12/26 07:31:30;;;;;;;29.83;11.90;;;;;;;;;;6175505;23;20184;-90
2021/12/26 07:34:41;;;;;;;29.47;11.67;;;;;;;;;;6188027;23;20168;-88
2021/12/26 07:49:57;;;;;;;27.40;11.40;;;;;;;;;;6157005;23;20208;-89
2021/12/26 07:53:23;;;;;;;28.23;11.60;;;;;;;;;;6206246;23;20172;-91
2021/12/26 07:56:49;;;;;;;29.73;10.60;;;;;;;;;;6167974;23;20700;-89
2021/12/26 08:00:13;;;;;;;27.37;11.30;;;;;;;;;;6199812;23;20176;-89
2021/12/26 08:03:36;;;;;;;25.83;10.97;;;;;;;;;;6204671;23;20221;-90
2021/12/26 08:07:00;;;;;;;23.37;9.70;;;;;;;;;;6204996;23;20156;-89
2021/12/26 08:10:09;;;;;;;28.40;11.63;;;;;;;;;;6188327;23;20191;-89
2021/12/26 08:13:15;;;;;;;26.23;10.83;;;;;;;;;;6186683;23;20225;-90
2021/12/26 08:16:20;;;;;;;28.17;10.10;;;;;;;;;;6187826;23;20220;-90
2021/12/26 08:19:25;;;;;;;24.53;9.73;;;;;;;;;;6184054;23;20160;-87
2021/12/26 08:22:32;;;;;;;20.63;9.20;;;;;;;;;;6186042;23;20188;-87
2021/12/26 08:25:38;;;;;;;24.00;9.37;;;;;;;;;;6185939;23;20164;-90
2021/12/26 08:28:44;;;;;;;24.57;10.20;;;;;;;;;;6169310;23;20171;-89
2021/12/26 08:31:50;;;;;;;20.37;8.87;;;;;;;;;;6185850;23;20164;-89
2021/12/26 08:34:55;;;;;;;21.17;8.80;;;;;;;;;;6187137;23;20167;-90
2021/12/26 08:38:01;;;;;;;19.27;8.80;;;;;;;;;;6185581;23;20160;-90
2021/12/26 08:41:08;;;;;;;27.63;9.10;;;;;;;;;;6186684;23;20155;-89
2021/12/26 08:44:16;;;;;;;20.17;8.97;;;;;;;;;;6187253;23;20215;-89
2021/12/26 08:47:21;;;;;;;21.60;8.50;;;;;;;;;;6183406;23;20168;-91
2021/12/26 08:50:27;;;;;;;24.60;9.17;;;;;;;;;;6172627;23;20259;-91
2021/12/26 08:53:34;;;;;;;23.13;8.13;;;;;;;;;;6173269;23;20160;-89
2021/12/26 08:56:41;;;;;;;18.17;7.40;;;;;;;;;;6175076;23;20185;-90
2021/12/26 08:59:47;;;;;;;19.67;7.77;;;;;;;;;;6174356;23;20169;-90
2021/12/26 09:02:53;;;;;;;30.47;13.57;;;;;;;;;;6173989;23;20156;-90
2021/12/26 09:05:59;;;;;;;20.70;8.17;;;;;;;;;;6173222;23;20169;-91
2021/12/26 09:09:04;;;;;;;18.70;7.37;;;;;;;;;;6171817;23;20188;-90
2021/12/26 09:12:11;;;;;;;22.10;7.40;;;;;;;;;;6174655;23;20167;-90
2021/12/26 09:15:16;;;;;;;17.07;6.23;;;;;;;;;;6172204;23;20196;-91
2021/12/26 09:18:22;;;;;;;15.80;6.60;;;;;;;;;;6172713;23;20684;-89
2021/12/26 09:21:27;;;;;;;18.63;7.60;;;;;;;;;;6173344;23;20176;-90
2021/12/26 09:24:33;;;;;;;20.00;7.67;;;;;;;;;;6172498;23;20168;-91
2021/12/26 09:27:39;;;;;;;18.77;7.30;;;;;;;;;;6173144;23;20237;-90
2021/12/26 09:30:45;;;;;;;23.07;7.27;;;;;;;;;;6171818;23;20200;-90
2021/12/26 09:33:50;;;;;;;19.43;7.23;;;;;;;;;;6172059;23;20231;-88
2021/12/26 09:36:56;;;;;;;20.90;7.63;;;;;;;;;;6172138;23;20153;-90
2021/12/26 09:40:02;;;;;;;24.83;7.87;;;;;;;;;;6173543;23;20168;-89
2021/12/26 09:43:09;;;;;;;19.47;6.97;;;;;;;;;;6171032;23;20224;-90
2021/12/26 09:46:14;;;;;;;16.83;6.77;;;;;;;;;;6171526;23;20168;-90
2021/12/26 09:49:21;;;;;;;15.70;6.53;;;;;;;;;;6175072;23;20184;-90
2021/12/26 09:52:26;;;;;;;18.20;6.70;;;;;;;;;;6183719;23;20159;-90
2021/12/26 09:55:32;;;;;;;15.50;6.50;;;;;;;;;;6184819;23;20167;-91
2021/12/26 09:58:51;;;;;;;17.10;6.30;;;;;;;;;;6186699;23;20188;-90
2021/12/26 10:02:00;;;;;;;16.97;6.80;;;;;;;;;;6185726;23;20623;-90
2021/12/26 10:05:06;;;;;;;20.00;7.27;;;;;;;;;;6185840;23;20187;-91
2021/12/26 10:08:11;;;;;;;16.43;6.53;;;;;;;;;;6184910;23;20216;-90
2021/12/26 10:11:18;;;;;;;18.40;7.23;;;;;;;;;;6184082;23;20208;-90
2021/12/26 10:14:28;;;;;;;20.50;6.97;;;;;;;;;;6184921;23;20164;-91
2021/12/26 10:17:33;;;;;;;16.33;6.20;;;;;;;;;;6183471;23;20167;-91
2021/12/26 10:20:39;;;;;;;18.30;6.90;;;;;;;;;;6183584;23;20180;-91
2021/12/26 10:23:46;;;;;;;16.30;6.40;;;;;;;;;;6183355;23;20167;-90
2021/12/26 10:26:53;;;;;;;15.47;6.90;;;;;;;;;;6183880;23;20167;-89
2021/12/26 10:30:02;;;;;;;13.67;6.20;;;;;;;;;;6185937;23;20195;-90
2021/12/26 10:33:08;;;;;;;14.00;6.20;;;;;;;;;;6183843;23;20164;-91
2021/12/26 10:36:13;;;;;;;18.60;6.73;;;;;;;;;;6183092;23;20288;-89
2021/12/26 10:39:19;;;;;;;20.27;7.07;;;;;;;;;;6184929;23;20175;-90
2021/12/26 10:42:28;;;;;;;17.93;8.17;;;;;;;;;;6184777;23;20176;-90
2021/12/26 10:45:36;;;;;;;16.77;6.63;;;;;;;;;;6185443;23;20183;-90
2021/12/26 10:48:41;;;;;;;16.97;6.70;;;;;;;;;;6185207;23;20176;-93
2021/12/26 10:51:46;;;;;;;17.43;6.37;;;;;;;;;;6184496;23;20446;-90
2021/12/26 10:54:57;;;;;;;20.33;7.57;;;;;;;;;;6184119;23;20348;-89
2021/12/26 10:58:05;;;;;;;16.90;6.87;;;;;;;;;;6184690;23;20168;-89
2021/12/26 11:01:13;;;;;;;16.50;7.00;;;;;;;;;;6183107;23;20175;-90
2021/12/26 11:04:18;;;;;;;15.50;6.83;;;;;;;;;;6183880;23;20179;-89
2021/12/26 11:07:24;;;;;;;19.50;7.27;;;;;;;;;;6182880;23;20168;-88
2021/12/26 11:10:32;;;;;;;18.97;7.57;;;;;;;;;;6183520;23;20195;-89
2021/12/26 11:13:38;;;;;;;16.00;6.20;;;;;;;;;;6202316;23;20314;-90
2021/12/26 11:16:46;;;;;;;19.57;6.80;;;;;;;;;;6183418;23;20164;-90
2021/12/26 11:19:51;;;;;;;15.87;6.87;;;;;;;;;;6183800;23;20167;-90
2021/12/26 11:22:56;;;;;;;17.57;6.67;;;;;;;;;;6182781;23;20172;-89
2021/12/26 11:26:03;;;;;;;18.10;6.40;;;;;;;;;;6183733;23;20180;-89
2021/12/26 11:29:08;;;;;;;18.50;6.83;;;;;;;;;;6183412;23;20240;-91
2021/12/26 11:32:14;;;;;;;20.00;6.80;;;;;;;;;;6185584;23;20209;-91
2021/12/26 11:35:19;;;;;;;15.07;6.47;;;;;;;;;;6183740;23;20163;-91
2021/12/26 11:38:26;;;;;;;15.73;6.00;;;;;;;;;;6185145;23;20211;-91
2021/12/26 11:41:58;;;;;;;15.97;5.80;;;;;;;;;;6206313;23;20168;-90
2021/12/26 11:45:43;;;;;;;14.07;5.37;;;;;;;;;;6204740;23;20241;-90
2021/12/26 11:49:21;;;;;;;15.83;5.83;;;;;;;;;;6204177;23;20172;-90
2021/12/26 11:53:03;;;;;;;15.70;6.20;;;;;;;;;;6205625;23;20219;-90
2021/12/26 11:56:24;;;;;;;14.60;6.10;;;;;;;;;;6188814;23;20152;-91
2021/12/26 11:59:40;;;;;;;19.47;6.97;;;;;;;;;;6185186;23;20159;-91
2021/12/26 12:02:47;;;;;;;15.47;6.00;;;;;;;;;;6187472;23;20152;-91
2021/12/26 12:05:55;;;;;;;15.93;6.13;;;;;;;;;;6187320;23;20172;-92
2021/12/26 12:09:22;;;;;;;14.67;6.23;;;;;;;;;;6188035;23;20168;-91
2021/12/26 12:12:43;;;;;;;15.13;6.10;;;;;;;;;;6188775;23;20172;-91
2021/12/26 12:15:51;;;;;;;15.20;5.53;;;;;;;;;;6188653;23;20164;-90
2021/12/26 12:18:57;;;;;;;14.10;5.40;;;;;;;;;;6190781;23;20543;-90
2021/12/26 12:22:08;;;;;;;16.57;5.97;;;;;;;;;;6190014;23;20167;-91
2021/12/26 12:25:33;;;;;;;17.87;6.73;;;;;;;;;;6189893;23;20163;-89
2021/12/26 12:28:43;;;;;;;16.57;6.13;;;;;;;;;;6189496;23;20160;-91
2021/12/26 12:31:51;;;;;;;16.50;5.60;;;;;;;;;;6189708;23;20199;-91
2021/12/26 12:34:58;;;;;;;14.43;6.10;;;;;;;;;;6187492;23;20172;-89
2021/12/26 12:38:22;;;;;;;14.17;5.83;;;;;;;;;;6186970;23;20175;-90
2021/12/26 12:41:38;;;;;;;14.43;5.97;;;;;;;;;;6188016;23;20184;-91
2021/12/26 12:48:29;;;;;;;16.87;6.00;;;;;;;;;;6189072;23;20192;-90
2021/12/26 12:51:41;;;;;;;16.20;5.97;;;;;;;;;;6158586;23;20208;-89
2021/12/26 12:54:52;;;;;;;15.50;5.70;;;;;;;;;;6157858;23;20164;-90
2021/12/26 12:57:57;;;;;;;27.27;6.90;;;;;;;;;;6157033;23;20172;-90
2021/12/26 13:01:05;;;;;;;16.13;5.97;;;;;;;;;;6158672;23;20266;-88
2021/12/26 13:04:11;;;;;;;15.43;5.30;;;;;;;;;;6159425;23;20509;-91
2021/12/26 13:07:17;;;;;;;17.13;5.83;;;;;;;;;;6156776;23;20212;-90
2021/12/26 13:10:25;;;;;;;18.37;6.87;;;;;;;;;;6160000;23;20232;-91
2021/12/26 13:13:33;;;;;;;14.13;5.97;;;;;;;;;;6159486;23;20176;-90
2021/12/26 13:16:38;;;;;;;17.43;5.80;;;;;;;;;;6158598;23;20163;-90
2021/12/26 13:19:44;;;;;;;17.60;6.30;;;;;;;;;;6158753;23;20176;-90
2021/12/26 13:22:51;;;;;;;14.93;6.27;;;;;;;;;;6156614;23;20557;-90
2021/12/26 13:26:01;;;;;;;13.53;5.37;;;;;;;;;;6158134;23;20172;-90
2021/12/26 13:29:08;;;;;;;16.50;5.90;;;;;;;;;;6157882;23;20184;-89
2021/12/26 13:32:14;;;;;;;18.10;6.23;;;;;;;;;;6157577;23;20180;-90
2021/12/26 13:35:19;;;;;;;15.67;6.23;;;;;;;;;;6154793;23;20173;-90
2021/12/26 13:38:25;;;;;;;16.23;6.00;;;;;;;;;;6159861;23;20172;-91
2021/12/26 13:41:33;;;;;;;16.30;6.40;;;;;;;;;;6158312;23;20164;-90
2021/12/26 13:44:44;;;;;;;15.13;6.10;;;;;;;;;;6157313;23;20179;-89
2021/12/26 13:47:49;;;;;;;27.50;6.43;;;;;;;;;;6159233;23;20188;-90
2021/12/26 13:50:55;;;;;;;18.00;6.13;;;;;;;;;;6180654;23;20215;-90
2021/12/26 13:54:06;;;;;;;13.10;5.57;;;;;;;;;;6186311;23;20155;-89
2021/12/26 13:57:16;;;;;;;18.37;5.93;;;;;;;;;;6187880;23;20160;-90
2021/12/26 14:00:21;;;;;;;17.17;6.33;;;;;;;;;;6189070;23;20175;-90
2021/12/26 14:03:27;;;;;;;16.67;6.07;;;;;;;;;;6186974;23;20163;-90
2021/12/26 14:06:33;;;;;;;24.87;6.87;;;;;;;;;;6187312;23;20175;-90
2021/12/26 14:09:40;;;;;;;22.77;7.93;;;;;;;;;;6186440;23;20208;-90
2021/12/26 14:12:49;;;;;;;18.93;6.47;;;;;;;;;;6188615;23;20163;-90
2021/12/26 14:15:59;;;;;;;20.53;7.53;;;;;;;;;;6187114;23;20199;-91
2021/12/26 14:19:06;;;;;;;19.23;6.17;;;;;;;;;;6188310;23;20219;-90
2021/12/26 14:22:12;;;;;;;15.83;6.23;;;;;;;;;;6187485;23;20156;-93
2021/12/26 14:25:21;;;;;;;19.17;7.03;;;;;;;;;;6187206;23;20172;-92
2021/12/26 14:28:31;;;;;;;21.70;6.33;;;;;;;;;;6187693;23;20203;-91
2021/12/26 14:31:37;;;;;;;18.60;6.30;;;;;;;;;;6187328;23;20179;-92
2021/12/26 14:34:46;;;;;;;17.03;6.13;;;;;;;;;;6188333;23;20208;-91
2021/12/26 14:37:53;;;;;;;18.00;6.90;;;;;;;;;;6189757;23;20164;-90
2021/12/26 14:41:00;;;;;;;19.30;6.77;;;;;;;;;;6186387;23;20223;-91
2021/12/26 14:44:14;;;;;;;17.00;7.00;;;;;;;;;;6185104;23;20152;-90
2021/12/26 14:47:22;;;;;;;13.40;5.77;;;;;;;;;;6186060;23;20172;-90
2021/12/26 14:50:31;;;;;;;16.47;6.50;;;;;;;;;;6185716;23;20191;-90
2021/12/26 14:53:37;;;;;;;17.93;7.23;;;;;;;;;;6185806;23;20154;-90
2021/12/26 14:56:46;;;;;;;20.83;7.23;;;;;;;;;;6185276;23;20587;-91
2021/12/26 14:59:56;;;;;;;24.00;7.97;;;;;;;;;;6185087;23;20615;-90
2021/12/26 15:03:02;;;;;;;22.47;7.33;;;;;;;;;;6187971;23;20176;-90
2021/12/26 15:06:15;;;;;;;22.43;7.00;;;;;;;;;;6186805;23;20172;-90
2021/12/26 15:09:31;;;;;;;21.73;7.30;;;;;;;;;;6188254;23;20209;-90
2021/12/26 15:16:36;;;;;;;17.27;6.30;;;;;;;;;;6188564;23;20180;-91
2021/12/26 15:19:43;;;;;;;21.70;6.80;;;;;;;;;;6187477;23;20172;-92
2021/12/26 15:22:49;;;;;;;17.30;7.20;;;;;;;;;;6189507;23;20215;-91
2021/12/26 15:25:55;;;;;;;19.27;6.80;;;;;;;;;;6190585;23;20168;-91
2021/12/26 15:29:02;;;;;;;22.03;7.03;;;;;;;;;;6188976;23;20155;-91
2021/12/26 15:32:15;;;;;;;20.67;6.97;;;;;;;;;;6186958;23;20275;-92
2021/12/26 15:35:21;;;;;;;23.67;6.97;;;;;;;;;;6189817;23;20484;-91
2021/12/26 15:38:31;;;;;;;17.37;6.67;;;;;;;;;;6188684;23;20186;-90
2021/12/26 15:41:43;;;;;;;18.80;7.63;;;;;;;;;;6187698;23;20167;-91
2021/12/26 15:44:54;;;;;;;20.37;7.57;;;;;;;;;;6186358;23;20215;-90
2021/12/26 15:48:05;;;;;;;19.90;7.07;;;;;;;;;;6189111;23;20216;-93
2021/12/26 15:51:11;;;;;;;19.10;7.07;;;;;;;;;;6188627;23;20227;-90
2021/12/26 15:54:18;;;;;;;18.17;6.90;;;;;;;;;;6187005;23;20243;-89
2021/12/26 21:27:38;;;;;;;29.37;11.07;;;;;;;;;;6108339;23;20196;31
2021/12/26 21:30:48;;;;;;;28.37;10.60;;;;;;;;;;6093735;23;20174;-89
2021/12/26 21:33:53;;;;;;;29.13;10.07;;;;;;;;;;6092997;23;20233;-90
2021/12/26 21:37:01;;;;;;;26.13;10.47;;;;;;;;;;6095610;23;20195;-89
2021/12/26 21:40:07;;;;;;;28.67;11.07;;;;;;;;;;6093954;23;20496;-89
2021/12/26 21:43:12;;;;;;;27.57;10.83;;;;;;;;;;6093345;23;20181;-89
2021/12/26 21:46:22;;;;;;;32.10;10.90;;;;;;;;;;6091294;23;20395;-90
2021/12/26 21:49:28;;;;;;;24.10;10.40;;;;;;;;;;6096779;23;20193;-90
2021/12/26 21:52:33;;;;;;;33.83;10.73;;;;;;;;;;6095037;23;20197;-88
2021/12/26 21:55:38;;;;;;;27.03;11.37;;;;;;;;;;6092971;23;20243;-90
2021/12/26 21:58:43;;;;;;;27.40;10.83;;;;;;;;;;6093608;23;20178;-91
2021/12/26 22:01:50;;;;;;;28.93;11.23;;;;;;;;;;6092979;23;20553;-90
2021/12/26 22:04:55;;;;;;;30.87;10.83;;;;;;;;;;6095377;23;20235;-91
2021/12/26 22:08:01;;;;;;;25.70;10.70;;;;;;;;;;6093516;23;20177;-91
2021/12/26 22:11:06;;;;;;;25.03;10.27;;;;;;;;;;6092140;23;20170;-90
2021/12/26 22:14:11;;;;;;;26.60;10.30;;;;;;;;;;6093176;23;20177;-90
2021/12/26 22:17:17;;;;;;;27.10;10.57;;;;;;;;;;6095356;23;20246;-89
2021/12/26 22:20:23;;;;;;;27.60;9.77;;;;;;;;;;6094982;23;20177;-88
2021/12/26 22:23:28;;;;;;;30.33;11.13;;;;;;;;;;6094635;23;20178;-91
2021/12/26 22:26:33;;;;;;;24.70;10.77;;;;;;;;;;6109407;23;20178;-92
2021/12/26 22:29:39;;;;;;;24.97;10.67;;;;;;;;;;6094100;23;20190;-90
2021/12/26 22:32:46;;;;;;;29.03;11.37;;;;;;;;;;6093740;23;20193;-89
2021/12/26 22:35:51;;;;;;;28.43;10.60;;;;;;;;;;6095054;23;20218;-91
2021/12/26 22:38:56;;;;;;;27.63;10.43;;;;;;;;;;6095826;23;20658;-90
2021/12/26 22:42:01;;;;;;;25.50;10.77;;;;;;;;;;6093749;23;20173;-91
2021/12/26 22:45:07;;;;;;;28.10;11.57;;;;;;;;;;6093470;23;20245;-91
2021/12/26 22:48:14;;;;;;;28.93;10.87;;;;;;;;;;6094938;23;20169;-91
2021/12/26 22:51:19;;;;;;;29.90;10.87;;;;;;;;;;6096016;23;20173;-90
2021/12/26 22:54:24;;;;;;;32.47;12.13;;;;;;;;;;6093167;23;20376;-91
2021/12/26 22:57:29;;;;;;;32.70;11.93;;;;;;;;;;6094721;23;20173;-91
2021/12/26 23:00:49;;;;;;;32.57;11.13;;;;;;;;;;6092940;23;20170;-92
2021/12/26 23:03:55;;;;;;;28.47;12.10;;;;;;;;;;6093718;23;20154;-90
2021/12/26 23:07:00;;;;;;;29.17;11.33;;;;;;;;;;6094760;23;20169;-90
2021/12/26 23:10:06;;;;;;;26.40;10.43;;;;;;;;;;6092909;23;20229;-91
2021/12/26 23:13:11;;;;;;;28.80;11.60;;;;;;;;;;6095406;23;20218;-91
2021/12/26 23:16:16;;;;;;;28.83;11.20;;;;;;;;;;6092883;23;20298;-90
2021/12/26 23:19:24;;;;;;;28.07;11.23;;;;;;;;;;6093484;23;20174;-89
2021/12/26 23:22:31;;;;;;;30.47;10.53;;;;;;;;;;6094584;23;20186;-90
2021/12/26 23:25:36;;;;;;;32.53;12.07;;;;;;;;;;6093938;23;20177;-91
2021/12/26 23:28:44;;;;;;;29.27;11.60;;;;;;;;;;6094304;23;20210;-91
2021/12/26 23:31:49;;;;;;;32.27;12.00;;;;;;;;;;6096187;23;20577;-91
2021/12/26 23:34:56;;;;;;;32.77;12.00;;;;;;;;;;6096403;23;20170;-91
2021/12/26 23:38:01;;;;;;;31.80;12.07;;;;;;;;;;6094568;23;20169;-91
2021/12/26 23:41:13;;;;;;;26.90;10.70;;;;;;;;;;6095509;23;20221;-92
2021/12/26 23:44:18;;;;;;;28.90;11.37;;;;;;;;;;6097470;23;20161;-91
2021/12/26 23:47:23;;;;;;;28.83;11.67;;;;;;;;;;6096259;23;20178;-91
2021/12/26 23:50:30;;;;;;;30.33;12.87;;;;;;;;;;6096860;23;20218;-90
2021/12/26 23:53:35;;;;;;;30.00;11.90;;;;;;;;;;6094333;23;20238;-90
2021/12/26 23:56:41;;;;;;;29.20;12.33;;;;;;;;;;6094971;23;20249;-92
2021/12/26 23:59:46;;;;;;;30.30;12.33;;;;;;;;;;6095317;23;20170;-91
